Newkirk, NM (88431)

10:03 PM MST on February 13, 2016 (GMT -0700)
Ortiz Ranch | | Change Station
CLOSE
Current Station
Personal Weather Station
Location: Newkirk, NM
Elevation: 4715 ft
Nearby Weather Stations

Elev 4715 ft 35.14 °N, 104.27 °W | Updated 21 seconds ago

Clear
Clear
50.0 °F
Feels Like 49 °F
N
3.7
Wind Variable Wind from SSW
Gusts 7.3 mph

Today
High -- | Low -- °F
--% Chance of Precip.
Yesterday
High -- | Low -- °F
Precip. -- in
Pressure 29.86 in
Visibility 10.0 miles
Clouds Clear
Windchill 49 °F
Dew Point 20 °F
Humidity 30%
Rainfall 0.00 in
Snow Depth Not available.
6:45 AM 5:37 PM
Waxing Crescent, 38% visible
METAR KTCC 140453Z AUTO 27010KT 10SM CLR 11/M09 A2995 RMK AO2 SLP111 T01111089
Pressure 29.86 in
Visibility 10.0 miles
Clouds Clear
Windchill 49 °F
Dew Point 20 °F
Humidity 30%
Rainfall 0.00 in
Snow Depth Not available.
6:45 AM 5:37 PM
Waxing Crescent, 38% visible
METAR KTCC 140453Z AUTO 27010KT 10SM CLR 11/M09 A2995 RMK AO2 SLP111 T01111089

10-Day Weather Forecast

Almanac

Astronomy

Feb. 13, 2016 Rise Set
Actual Time
Civil Twilight
Nautical Twilight
Astronomical Twilight
Moon
Length of Visible Light
Length of Day
Tomorrow will be .
, % of the Moon is Illuminated

Today's Extremes

State Highs State Lows

Community

WunderPhotos

Upload Photos

1,892,748 photos uploaded!

WunderBlog® & News

Nearby

Air Quality

  Air Quality AQ Index Pollutant
Not available.

Snow Depth

Station Depth Elevation

Earthquake Activity

City Distance Mag. Time & Date
Minimum magnitude displayed is 2.5.

Coastal Water Temperatures

Place Temperature

Stations

Nearby Weather Stations

Station Location Temp. Windchill Dew Point Humidity Wind Precip. Elev Updated Type
                   

Watches & Warnings

There are currently no watches in effect.